createdAt,value
2019-05-22T00:01:46.506Z,3.92
2019-05-22T00:07:12.110Z,3.98
2019-05-22T00:09:44.255Z,5.22
2019-05-22T00:12:15.556Z,2.92
2019-05-22T00:14:46.187Z,4.37
2019-05-22T00:17:15.898Z,2.75
2019-05-22T00:19:46.425Z,3.58
2019-05-22T00:22:23.683Z,3.60
2019-05-22T00:24:54.830Z,3.80
2019-05-22T00:27:26.103Z,4.58
2019-05-22T00:29:57.451Z,5.63
2019-05-22T00:32:27.219Z,3.98
2019-05-22T00:34:57.960Z,3.95
2019-05-22T00:37:29.251Z,4.47
2019-05-22T00:40:00.593Z,5.22
2019-05-22T00:42:31.839Z,4.60
2019-05-22T00:45:02.799Z,4.92
2019-05-22T00:47:32.590Z,5.83
2019-05-22T00:50:04.115Z,7.80
2019-05-22T00:52:46.939Z,5.15
2019-05-22T00:57:50.989Z,8.05
2019-05-22T01:00:22.238Z,7.75
2019-05-22T01:02:52.408Z,7.60
2019-05-22T01:05:23.800Z,7.08
2019-05-22T01:07:53.413Z,6.23
2019-05-22T01:10:23.096Z,5.47
2019-05-22T01:12:56.067Z,5.17
2019-05-22T01:15:27.051Z,8.23
2019-05-22T01:17:56.656Z,5.80
2019-05-22T01:20:29.336Z,8.50
2019-05-22T01:22:59.967Z,7.28
2019-05-22T01:25:31.212Z,5.53
2019-05-22T01:28:02.155Z,7.28
2019-05-22T01:30:42.411Z,5.25
2019-05-22T01:33:18.101Z,6.62
2019-05-22T01:35:55.244Z,5.37
2019-05-22T01:38:25.887Z,5.72
2019-05-22T01:41:05.623Z,5.50
2019-05-22T01:43:35.230Z,6.17
2019-05-22T01:46:07.531Z,5.62
2019-05-22T01:48:39.569Z,5.92
2019-05-22T01:51:11.016Z,5.37
2019-05-22T01:53:42.399Z,5.60
2019-05-22T01:56:13.780Z,6.03
2019-05-22T01:58:43.936Z,5.65
2019-05-22T02:01:16.825Z,6.92
2019-05-22T02:03:48.271Z,6.85
2019-05-22T02:06:19.632Z,7.07
2019-05-22T02:08:55.155Z,6.43
2019-05-22T02:11:26.413Z,8.73
2019-05-22T02:14:11.794Z,9.80
2019-05-22T02:16:56.204Z,10.50
2019-05-22T02:19:14.486Z,8.98
2019-05-22T02:21:44.806Z,9.55
2019-05-22T02:24:16.160Z,8.48
2019-05-22T02:26:46.267Z,9.13
2019-05-22T02:29:17.526Z,9.95
2019-05-22T02:31:48.338Z,10.43
2019-05-22T02:34:19.141Z,10.00
2019-05-22T02:36:48.781Z,11.88
2019-05-22T02:39:20.166Z,11.03
2019-05-22T02:41:55.107Z,11.70
2019-05-22T02:44:27.838Z,14.68
2019-05-22T02:47:16.789Z,12.73
2019-05-22T02:49:34.006Z,13.20
2019-05-22T02:52:03.787Z,16.73
2019-05-22T02:54:33.648Z,12.60
2019-05-22T02:57:03.793Z,15.50
2019-05-22T02:59:33.811Z,13.90
2019-05-22T03:02:04.194Z,18.02
2019-05-22T03:04:56.374Z,17.92
2019-05-22T03:07:26.790Z,20.40
2019-05-22T03:09:56.810Z,21.10
2019-05-22T03:12:30.616Z,23.00
2019-05-22T03:15:02.702Z,22.75
2019-05-22T03:17:33.773Z,23.05
2019-05-22T03:20:07.506Z,23.22
2019-05-22T03:22:44.620Z,23.70
2019-05-22T03:25:15.866Z,20.32
2019-05-22T03:27:52.012Z,25.43
2019-05-22T03:30:24.692Z,23.90
2019-05-22T03:32:55.628Z,26.70
2019-05-22T03:35:26.465Z,24.65
2019-05-22T03:37:57.292Z,27.82
2019-05-22T03:40:27.142Z,29.85
2019-05-22T03:42:57.535Z,25.75
2019-05-22T03:45:28.781Z,21.73
2019-05-22T03:47:59.641Z,25.43
2019-05-22T03:50:31.491Z,26.87
2019-05-22T03:53:05.596Z,28.10
2019-05-22T03:55:35.324Z,24.77
2019-05-22T03:58:05.548Z,24.47
2019-05-22T04:00:35.263Z,26.40
2019-05-22T04:03:05.264Z,28.12
2019-05-22T04:05:36.762Z,26.10
2019-05-22T04:08:08.278Z,31.12
2019-05-22T04:10:41.305Z,31.45
2019-05-22T04:13:11.182Z,29.52
2019-05-22T04:15:40.898Z,29.37
2019-05-22T04:18:14.569Z,31.75
2019-05-22T04:20:44.306Z,29.02
2019-05-22T04:23:14.709Z,32.63
2019-05-22T04:25:44.723Z,26.85
2019-05-22T04:28:14.666Z,28.75
2019-05-22T04:30:44.372Z,26.60
2019-05-22T04:33:14.085Z,28.57
2019-05-22T04:35:44.205Z,29.15
2019-05-22T04:38:15.552Z,28.00
2019-05-22T04:40:49.390Z,32.87
2019-05-22T04:43:21.156Z,37.93
2019-05-22T04:45:51.469Z,32.80
2019-05-22T04:48:22.082Z,29.65
2019-05-22T04:50:52.194Z,29.92
2019-05-22T04:53:21.906Z,32.05
2019-05-22T04:55:52.525Z,33.35
2019-05-22T04:58:26.725Z,31.75
2019-05-22T05:00:56.468Z,37.15
2019-05-22T05:03:26.145Z,32.73
2019-05-22T05:05:57.799Z,35.50
2019-05-22T05:08:27.432Z,35.73
2019-05-22T05:10:58.680Z,32.80
2019-05-22T05:13:28.362Z,33.23
2019-05-22T05:15:58.103Z,33.13
2019-05-22T05:18:27.809Z,31.82
2019-05-22T05:20:57.470Z,40.28
2019-05-22T05:23:27.742Z,32.30
2019-05-22T05:25:58.476Z,31.07
2019-05-22T05:28:28.467Z,30.30
2019-05-22T05:30:58.203Z,32.53
2019-05-22T05:33:28.196Z,32.85
2019-05-22T05:36:00.366Z,33.20
2019-05-22T05:38:34.889Z,36.68
2019-05-22T05:41:04.621Z,36.30
2019-05-22T05:43:34.407Z,33.70
2019-05-22T05:46:04.332Z,36.98
2019-05-22T05:48:36.240Z,33.13
2019-05-22T05:51:09.103Z,36.48
2019-05-22T05:54:02.149Z,41.92
2019-05-22T05:56:32.169Z,40.15
2019-05-22T05:59:03.265Z,34.65
2019-05-22T06:01:37.224Z,40.28
2019-05-22T06:04:07.136Z,35.63
2019-05-22T06:06:42.285Z,40.12
2019-05-22T06:09:15.336Z,38.85
2019-05-22T06:11:49.355Z,41.10
2019-05-22T06:14:26.153Z,39.20
2019-05-22T06:17:23.795Z,37.40
2019-05-22T06:19:56.601Z,39.88
2019-05-22T06:22:26.284Z,37.60
2019-05-22T06:24:57.531Z,39.18
2019-05-22T06:27:31.743Z,42.88
2019-05-22T06:30:06.291Z,39.18
2019-05-22T06:32:55.560Z,38.60
2019-05-22T06:35:26.983Z,38.00
2019-05-22T06:38:25.448Z,42.73
2019-05-22T06:40:56.233Z,39.67
2019-05-22T06:43:30.445Z,34.83
2019-05-22T06:46:01.159Z,35.58
2019-05-22T06:48:30.791Z,41.08
2019-05-22T06:51:00.475Z,31.77
2019-05-22T06:53:30.183Z,38.15
2019-05-22T06:56:01.617Z,33.45
2019-05-22T06:58:31.366Z,33.60
2019-05-22T07:01:01.076Z,33.95
2019-05-22T07:03:31.716Z,33.40
2019-05-22T07:06:02.614Z,34.35
2019-05-22T07:08:32.435Z,36.00
2019-05-22T07:11:02.172Z,39.03
2019-05-22T07:13:31.892Z,38.75
2019-05-22T07:16:02.097Z,37.08
2019-05-22T07:18:32.230Z,39.63
2019-05-22T07:21:01.936Z,39.27
2019-05-22T07:23:32.258Z,34.55
2019-05-22T07:26:02.358Z,41.05
2019-05-22T07:28:32.706Z,39.92
2019-05-22T07:31:03.103Z,46.92
2019-05-22T07:33:32.841Z,37.10
2019-05-22T07:36:10.235Z,40.60
2019-05-22T07:38:35.434Z,42.23
2019-05-22T07:41:06.069Z,42.23
2019-05-22T07:43:40.465Z,38.98
2019-05-22T07:46:07.099Z,37.67
2019-05-22T07:48:37.020Z,43.38
2019-05-22T07:51:06.751Z,36.40
2019-05-22T07:53:36.459Z,37.15
2019-05-22T07:56:10.301Z,32.95
2019-05-22T07:58:41.390Z,34.53
2019-05-22T08:01:11.633Z,30.97
2019-05-22T08:03:41.836Z,32.00
2019-05-22T08:06:11.877Z,31.57
2019-05-22T08:08:42.604Z,29.85
2019-05-22T08:11:14.220Z,32.50
2019-05-22T08:13:44.321Z,30.95
2019-05-22T08:16:14.065Z,29.87
2019-05-22T08:18:44.013Z,27.05
2019-05-22T08:21:14.029Z,28.32
2019-05-22T08:23:43.733Z,30.17
2019-05-22T08:26:15.056Z,29.15
2019-05-22T08:28:44.998Z,28.80
2019-05-22T08:31:15.935Z,31.12
2019-05-22T08:33:45.527Z,24.95
2019-05-22T08:36:16.952Z,24.05
2019-05-22T08:38:47.822Z,26.93
2019-05-22T08:41:19.466Z,30.35
2019-05-22T08:44:13.661Z,27.10
2019-05-22T08:46:20.619Z,27.77
2019-05-22T08:48:50.355Z,24.32
2019-05-22T08:51:20.276Z,27.17
2019-05-22T08:53:51.043Z,25.23
2019-05-22T08:56:21.887Z,24.15
2019-05-22T08:58:51.555Z,27.07
2019-05-22T09:01:21.368Z,28.47
2019-05-22T09:03:51.391Z,25.50
2019-05-22T09:06:23.094Z,25.08
2019-05-22T09:08:52.746Z,29.37
2019-05-22T09:11:22.537Z,26.02
2019-05-22T09:13:52.270Z,27.55
2019-05-22T09:16:22.492Z,31.52
2019-05-22T09:18:52.600Z,30.35
2019-05-22T09:21:22.738Z,30.87
2019-05-22T09:23:53.139Z,34.67
2019-05-22T09:26:23.484Z,31.40
2019-05-22T09:28:53.167Z,30.37
2019-05-22T09:31:22.905Z,33.50
2019-05-22T09:33:52.799Z,30.25
2019-05-22T09:36:22.528Z,31.68
2019-05-22T09:38:52.873Z,36.28
2019-05-22T09:41:22.675Z,32.35
2019-05-22T09:43:52.353Z,31.02
2019-05-22T09:46:22.913Z,31.90
2019-05-22T09:48:55.742Z,32.28
2019-05-22T09:51:26.833Z,32.40
2019-05-22T09:53:56.823Z,37.03
2019-05-22T09:56:26.941Z,34.30
2019-05-22T09:58:58.790Z,33.13
2019-05-22T10:01:27.924Z,31.47
2019-05-22T10:03:57.742Z,34.35
2019-05-22T10:06:27.455Z,31.97
2019-05-22T10:08:58.080Z,30.35
2019-05-22T10:11:28.299Z,32.53
2019-05-22T10:13:58.010Z,30.25
2019-05-22T10:16:27.721Z,32.58
2019-05-22T10:18:57.406Z,33.50
2019-05-22T10:21:28.037Z,29.85
2019-05-22T10:23:57.781Z,31.07
2019-05-22T10:26:27.482Z,32.75
2019-05-22T10:28:57.268Z,30.12
2019-05-22T10:31:27.215Z,28.47
2019-05-22T10:33:56.919Z,35.03
2019-05-22T10:36:26.607Z,30.37
2019-05-22T10:38:56.340Z,29.27
2019-05-22T10:41:25.945Z,29.48
2019-05-22T10:43:55.784Z,25.97
2019-05-22T10:46:27.339Z,28.07
2019-05-22T10:48:56.821Z,26.23
2019-05-22T10:51:26.609Z,25.80
2019-05-22T10:53:56.279Z,25.25
2019-05-22T10:56:25.950Z,24.45
2019-05-22T10:58:55.661Z,23.77
2019-05-22T11:01:25.589Z,21.40
2019-05-22T11:03:55.697Z,25.52
2019-05-22T11:06:25.687Z,27.13
2019-05-22T11:08:55.703Z,25.75
2019-05-22T11:11:26.588Z,21.52
2019-05-22T11:14:01.495Z,25.43
2019-05-22T11:16:28.128Z,23.02
2019-05-22T11:18:58.066Z,25.27
2019-05-22T11:21:29.552Z,20.90
2019-05-22T11:23:59.287Z,22.15
2019-05-22T11:26:29.001Z,24.47
2019-05-22T11:28:58.707Z,25.73
2019-05-22T11:31:29.624Z,26.25
2019-05-22T11:33:59.282Z,28.20
2019-05-22T11:36:28.882Z,23.92
2019-05-22T11:38:58.577Z,25.95
2019-05-22T11:41:28.307Z,27.35
2019-05-22T11:43:58.979Z,27.73
2019-05-22T11:46:28.860Z,25.45
2019-05-22T11:49:00.295Z,24.20
2019-05-22T11:51:29.913Z,29.07
2019-05-22T11:54:08.789Z,29.60
2019-05-22T11:56:30.870Z,25.53
2019-05-22T11:59:00.580Z,25.57
2019-05-22T12:01:31.316Z,25.82
2019-05-22T12:04:01.012Z,24.57
2019-05-22T12:06:30.911Z,25.80
2019-05-22T12:09:00.649Z,24.65
2019-05-22T12:11:30.462Z,24.52
2019-05-22T12:14:01.621Z,27.52
2019-05-22T12:16:31.392Z,26.37
2019-05-22T12:19:01.232Z,27.55
2019-05-22T12:21:30.939Z,25.92
2019-05-22T12:24:01.881Z,24.35
2019-05-22T12:26:31.793Z,24.63
2019-05-22T12:29:01.563Z,27.35
2019-05-22T12:31:31.418Z,27.27
2019-05-22T12:34:01.416Z,29.82
2019-05-22T12:36:31.119Z,26.80
2019-05-22T12:39:01.371Z,23.75
2019-05-22T12:41:32.410Z,25.72
2019-05-22T12:44:02.120Z,24.23
2019-05-22T12:46:34.289Z,25.57
2019-05-22T12:49:08.601Z,24.00
2019-05-22T12:51:35.960Z,25.48
2019-05-22T12:54:05.861Z,19.62
2019-05-22T12:56:37.332Z,22.67
2019-05-22T12:59:08.880Z,25.40
2019-05-22T13:01:38.877Z,21.97
2019-05-22T13:04:09.119Z,21.37
2019-05-22T13:06:39.111Z,20.72
2019-05-22T13:09:09.748Z,25.70
2019-05-22T13:11:39.387Z,20.05
2019-05-22T13:14:10.211Z,18.73
2019-05-22T13:19:04.015Z,17.35
2019-05-22T13:21:34.120Z,23.75
2019-05-22T13:24:08.133Z,16.90
2019-05-22T13:26:38.812Z,21.65
2019-05-22T13:29:08.735Z,19.67
2019-05-22T13:31:38.397Z,21.33
2019-05-22T13:34:08.099Z,22.40
2019-05-22T13:36:38.499Z,23.80
2019-05-22T13:39:09.163Z,26.60
2019-05-22T13:41:38.865Z,22.20
2019-05-22T13:44:09.094Z,25.35
2019-05-22T13:46:38.798Z,30.85
2019-05-22T13:49:08.487Z,31.33
2019-05-22T13:51:38.399Z,29.60
2019-05-22T13:54:08.849Z,31.20
2019-05-22T13:56:38.766Z,38.00
2019-05-22T13:59:08.475Z,29.60
2019-05-22T14:01:38.184Z,28.77
2019-05-22T14:04:07.971Z,27.55
2019-05-22T14:06:37.707Z,32.43
2019-05-22T14:09:13.357Z,32.98
2019-05-22T14:11:43.072Z,28.02
2019-05-22T14:14:12.967Z,28.50
2019-05-22T14:16:48.731Z,27.22
2019-05-22T14:19:13.911Z,28.27
2019-05-22T14:21:50.999Z,31.30
2019-05-22T14:24:16.709Z,27.50
2019-05-22T14:26:46.392Z,26.87
2019-05-22T14:29:16.272Z,25.80
2019-05-22T14:31:45.857Z,23.87
2019-05-22T14:34:15.782Z,22.35
2019-05-22T14:36:45.498Z,23.98
2019-05-22T14:39:15.616Z,22.77
2019-05-22T14:41:45.328Z,24.07
2019-05-22T14:44:15.037Z,23.02
2019-05-22T14:46:44.743Z,25.50
2019-05-22T14:49:14.657Z,27.13
2019-05-22T14:51:44.572Z,20.57
2019-05-22T14:54:14.254Z,20.80
2019-05-22T14:56:43.872Z,22.37
2019-05-22T14:59:13.647Z,23.22
2019-05-22T15:01:43.494Z,25.20
2019-05-22T15:04:13.225Z,23.20
2019-05-22T15:06:42.964Z,21.00
2019-05-22T15:09:12.619Z,26.23
2019-05-22T15:11:42.355Z,24.75
2019-05-22T15:14:12.040Z,22.75
2019-05-22T15:16:41.751Z,21.85
2019-05-22T15:19:11.485Z,24.25
2019-05-22T15:21:41.173Z,25.62
2019-05-22T15:24:10.881Z,22.58
2019-05-22T15:26:40.517Z,22.48
2019-05-22T15:29:10.224Z,23.98
2019-05-22T15:31:41.684Z,20.48
2019-05-22T15:34:12.204Z,22.37
2019-05-22T15:36:41.813Z,17.95
2019-05-22T15:39:13.061Z,18.98
2019-05-22T15:41:42.768Z,24.98
2019-05-22T15:44:12.460Z,17.55
2019-05-22T15:46:42.904Z,16.67
2019-05-22T15:49:12.895Z,17.42
2019-05-22T15:51:42.848Z,15.98
2019-05-22T15:54:13.030Z,17.27
2019-05-22T15:56:43.077Z,15.63
2019-05-22T15:59:14.015Z,16.12
2019-05-22T16:01:43.726Z,16.15
2019-05-22T16:04:15.074Z,14.20
2019-05-22T16:06:45.064Z,16.87
2019-05-22T16:09:16.337Z,14.20
2019-05-22T16:11:49.055Z,14.10
2019-05-22T16:14:20.149Z,14.13
2019-05-22T16:16:50.047Z,12.00
2019-05-22T16:19:19.887Z,14.25
2019-05-22T16:21:49.597Z,9.60
2019-05-22T16:24:21.155Z,11.40
2019-05-22T16:26:50.871Z,9.05
2019-05-22T16:29:20.980Z,15.90
2019-05-22T16:31:50.806Z,10.68
2019-05-22T16:34:20.504Z,9.93
2019-05-22T16:36:50.418Z,9.83
2019-05-22T16:39:20.646Z,9.85
2019-05-22T16:41:50.372Z,16.05
2019-05-22T16:44:20.060Z,10.35
2019-05-22T16:46:50.078Z,9.70
2019-05-22T16:49:20.020Z,6.87
2019-05-22T16:51:49.805Z,10.45
2019-05-22T16:54:21.439Z,9.23
2019-05-22T16:56:50.739Z,7.87
2019-05-22T16:59:40.615Z,9.30
2019-05-22T17:02:12.008Z,8.20
2019-05-22T17:04:41.600Z,9.77
2019-05-22T17:07:11.492Z,10.13
2019-05-22T17:09:41.202Z,10.72
2019-05-22T17:12:11.553Z,9.43
2019-05-22T17:14:41.238Z,13.50
2019-05-22T17:17:10.971Z,9.23
2019-05-22T17:19:40.680Z,11.05
2019-05-22T17:22:10.571Z,10.88
2019-05-22T17:24:40.305Z,9.00
2019-05-22T17:27:10.529Z,10.28
2019-05-22T17:29:40.211Z,9.15
2019-05-22T17:32:10.461Z,10.15
2019-05-22T17:34:41.272Z,10.45
2019-05-22T17:37:13.241Z,8.68
2019-05-22T17:39:44.819Z,15.55
2019-05-22T17:42:15.354Z,9.35
2019-05-22T17:44:46.590Z,7.87
2019-05-22T17:47:17.834Z,8.55
2019-05-22T17:49:47.544Z,12.70
2019-05-22T17:52:18.088Z,8.85
2019-05-22T17:54:48.170Z,10.70
2019-05-22T17:57:18.081Z,9.80
2019-05-22T17:59:48.236Z,8.10
2019-05-22T18:02:19.671Z,9.30
2019-05-22T18:04:50.209Z,7.43
2019-05-22T18:07:19.939Z,7.53
2019-05-22T18:09:50.217Z,7.95
2019-05-22T18:12:20.164Z,9.25
2019-05-22T18:14:50.078Z,7.22
2019-05-22T18:17:21.999Z,9.23
2019-05-22T18:19:51.618Z,8.25
2019-05-22T18:22:21.365Z,9.15
2019-05-22T18:24:51.243Z,8.93
2019-05-22T18:27:20.980Z,9.15
2019-05-22T18:29:50.590Z,8.73
2019-05-22T18:32:20.199Z,10.98
2019-05-22T18:34:50.899Z,8.08
2019-05-22T18:37:20.638Z,8.95
2019-05-22T18:39:50.323Z,12.28
2019-05-22T18:42:20.569Z,8.43
2019-05-22T18:44:50.252Z,9.10
2019-05-22T18:47:20.300Z,8.23
2019-05-22T18:49:49.981Z,7.60
2019-05-22T18:52:19.717Z,8.40
2019-05-22T18:54:51.379Z,10.35
2019-05-22T18:57:21.288Z,9.77
2019-05-22T18:59:51.013Z,13.22
2019-05-22T19:02:22.416Z,12.68
2019-05-22T19:04:52.137Z,10.50
2019-05-22T19:07:23.555Z,10.48
2019-05-22T19:09:53.291Z,9.93
2019-05-22T19:12:23.414Z,9.68
2019-05-22T19:14:53.150Z,9.88
2019-05-22T19:17:22.865Z,9.45
2019-05-22T19:19:52.603Z,10.00
2019-05-22T19:22:22.421Z,8.10
2019-05-22T19:24:52.095Z,8.88
2019-05-22T19:27:21.907Z,9.73
2019-05-22T19:29:51.588Z,8.53
2019-05-22T19:32:23.259Z,10.45
2019-05-22T19:34:52.882Z,10.03
2019-05-22T19:37:22.563Z,9.48
2019-05-22T19:39:53.298Z,10.25
2019-05-22T19:42:23.237Z,10.88
2019-05-22T19:44:52.948Z,8.78
2019-05-22T19:47:23.040Z,8.63
2019-05-22T19:49:52.885Z,9.75
2019-05-22T19:52:40.478Z,9.73
2019-05-22T19:57:23.854Z,9.10
2019-05-22T19:59:53.565Z,8.45
2019-05-22T20:02:23.275Z,8.18
2019-05-22T20:04:53.160Z,9.00
2019-05-22T20:07:24.503Z,10.58
2019-05-22T20:09:54.761Z,9.10
2019-05-22T20:12:25.596Z,10.78
2019-05-22T20:14:55.346Z,9.43
2019-05-22T20:17:27.977Z,10.30
2019-05-22T20:19:57.771Z,10.98
2019-05-22T20:22:28.517Z,12.47
2019-05-22T20:24:58.119Z,12.15
2019-05-22T20:27:27.851Z,11.25
2019-05-22T20:29:58.658Z,13.25
2019-05-22T20:32:28.396Z,13.38
2019-05-22T20:34:58.111Z,12.35
2019-05-22T20:37:28.329Z,12.80
2019-05-22T20:39:58.040Z,12.80
2019-05-22T20:42:28.057Z,13.80
2019-05-22T20:44:57.870Z,12.78
2019-05-22T20:47:28.501Z,22.30
2019-05-22T20:49:59.981Z,19.80
2019-05-22T20:52:30.153Z,15.57
2019-05-22T20:55:03.154Z,14.85
2019-05-22T20:57:33.795Z,14.83
2019-05-22T21:00:06.875Z,18.55
2019-05-22T21:02:38.730Z,14.63
2019-05-22T21:05:11.220Z,19.07
2019-05-22T21:07:46.189Z,15.83
2019-05-22T21:10:15.935Z,18.62
2019-05-22T21:12:46.548Z,21.17
2019-05-22T21:15:16.284Z,14.75
2019-05-22T21:17:46.532Z,16.17
2019-05-22T21:20:17.756Z,17.80
2019-05-22T21:25:17.299Z,17.95
2019-05-22T21:27:46.905Z,13.43
2019-05-22T21:30:17.101Z,18.52
2019-05-22T21:32:46.835Z,16.40
2019-05-22T21:35:17.363Z,17.90
2019-05-22T21:37:47.381Z,17.15
2019-05-22T21:40:18.119Z,18.75
2019-05-22T21:42:49.516Z,17.07
2019-05-22T21:45:19.661Z,20.77
2019-05-22T21:47:49.400Z,17.32
2019-05-22T21:50:20.233Z,19.27
2019-05-22T21:52:49.945Z,15.40
2019-05-22T21:55:19.833Z,16.25
2019-05-22T21:57:49.782Z,15.23
2019-05-22T22:00:40.756Z,20.05
2019-05-22T22:03:12.427Z,17.77
2019-05-22T22:05:42.456Z,16.37
2019-05-22T22:08:12.780Z,15.90
2019-05-22T22:10:42.486Z,15.78
2019-05-22T22:13:13.225Z,13.32
2019-05-22T22:15:46.491Z,17.27
2019-05-22T22:18:16.229Z,18.00
2019-05-22T22:20:45.915Z,16.50
2019-05-22T22:23:15.647Z,17.10
2019-05-22T22:25:46.355Z,17.30
2019-05-22T22:28:17.602Z,15.95
2019-05-22T22:30:52.151Z,17.57
2019-05-22T22:33:31.544Z,23.60
2019-05-22T22:36:02.399Z,16.87
2019-05-22T22:38:33.008Z,16.82
2019-05-22T22:41:02.772Z,18.60
2019-05-22T22:43:32.997Z,21.12
2019-05-22T22:46:19.800Z,23.38
2019-05-22T22:48:52.541Z,23.30
2019-05-22T22:51:24.751Z,17.70
2019-05-22T22:53:55.939Z,19.40
2019-05-22T22:56:28.104Z,20.00
2019-05-22T22:58:58.489Z,20.50
2019-05-22T23:01:31.013Z,19.87
2019-05-22T23:04:01.291Z,18.50
2019-05-22T23:06:31.205Z,17.27
2019-05-22T23:09:01.218Z,23.12
2019-05-22T23:11:32.876Z,19.50
2019-05-22T23:14:03.269Z,21.57
2019-05-22T23:16:33.218Z,24.70
2019-05-22T23:19:16.014Z,21.37
2019-05-22T23:21:45.643Z,20.75
2019-05-22T23:24:16.800Z,19.50
2019-05-22T23:26:47.595Z,19.00
2019-05-22T23:29:17.335Z,18.80
2019-05-22T23:31:48.785Z,18.15
2019-05-22T23:34:18.494Z,18.27
2019-05-22T23:36:48.620Z,19.40
2019-05-22T23:39:18.837Z,18.80
2019-05-22T23:41:48.752Z,20.25
2019-05-22T23:44:19.587Z,18.95
2019-05-22T23:46:49.990Z,22.07
2019-05-22T23:49:19.700Z,24.05
2019-05-22T23:51:49.536Z,20.65
2019-05-22T23:54:22.544Z,21.23
2019-05-22T23:56:54.088Z,19.67
2019-05-22T23:59:25.157Z,21.30
